Station PORT2 - 8770475 - Port Arthur, TX Image indicating link to RSS feed of recent meteorological observations for station PORT2


Conditions at PORT2 as of
(10:54 am CDT)
1554 GMT on 08/31/2026:
     

Click on the graph icon in the table below to see a time series plot of the last five days of that observation.

5-day plot - Wind Direction Wind Direction (WDIR):ENE ( 60 deg true )
5-day plot - Wind Speed Wind Speed (WSPD): 6.0 kts
5-day plot - Wind Gust Wind Gust (GST): 8.9 kts
5-day plot - Atmospheric Pressure Atmospheric Pressure (PRES):30.00 in
5-day plot - Air Temperature Air Temperature (ATMP): 86.7 °F
5-day plot - Water Temperature Water Temperature (WTMP): 88.9 °F
5-day plot - Wind Speed at 10 Meters Wind Speed at 10 meters (WSPD10M): 5.8 kts
5-day plot - Wind Speed at 20 Meters Wind Speed at 20 meters (WSPD20M): 5.8 kts
5-day plot -  Wind Speed, Wind Gust and Atmospheric Pressure Combined plot of Wind Speed, Gust, and Air Pressure
Previous observations
TIME
(CDT)
5-day plot - Wind Direction
WDIR
 
5-day plot - Wind Speed
WSPD
kts
5-day plot - Wind Gust
GST
kts
5-day plot - Wave Height
WVHT
ft
5-day plot - Dominant Wave Period
DPD
sec
5-day plot - Average Wave Period
APD
sec
5-day plot - Mean Wave Direction
MWD
 
5-day plot - Atmospheric Pressure
PRES
in
5-day plot - Pressure Tendency
PTDY
in
5-day plot - Air Temperature
ATMP
°F
5-day plot - Water Temperature
WTMP
°F
5-day plot - Dew Point
DEWP
°F
5-day plot - Salinity
SAL
psu
5-day plot - Visibility
VIS
nmi
5-day plot - Tide (above MLLW)
TIDE
ft
2026-08-31 10:48 amENE 6.0 13.0----30.00- 86.0 88.9----
2026-08-31 10:42 amENE 7.0 11.1----30.00- 86.0 88.9----
2026-08-31 10:36 amENE 8.0 11.1----30.00- 86.0 88.9----
2026-08-31 10:30 amENE 5.1 8.0----30.00- 86.4 88.9----
2026-08-31 10:24 amENE 7.0 11.1----30.00- 85.5 88.9----
2026-08-31 10:18 amENE 6.0 11.1----30.00-- 88.9----
2026-08-31 10:12 amENE 7.0 9.9----30.00-- 88.9----
2026-08-31 10:06 amENE 6.0 9.9----30.00-- 88.9----
2026-08-31 10:00 amENE 5.1 8.0----30.00+0.05 85.3 88.9----
2026-08-31 09:54 am NE 2.9 6.0----30.00- 85.8 88.9----
2026-08-31 09:48 amENE 6.0 8.0----29.99- 84.7 88.9----
2026-08-31 09:42 amENE 5.1 8.9----30.00- 84.4 88.9----
2026-08-31 09:36 amENE 5.1 8.0----30.00- 84.6 88.9----
2026-08-31 09:30 amENE 6.0 11.1----30.00- 84.2 88.9----
2026-08-31 09:24 amENE 6.0 8.9----30.00- 83.8 88.9----
2026-08-31 09:18 amENE 7.0 9.9----30.00-- 88.9----
2026-08-31 09:12 am NE 4.1 8.0----30.00-- 88.9----
2026-08-31 09:06 am NE 2.9 8.0----29.99-- 88.9----
2026-08-31 09:00 amNNE 5.1 7.0----29.99+0.05 83.8 88.9----
2026-08-31 08:54 am NE 2.9 5.1----29.99- 84.0 88.9----
2026-08-31 08:48 amNNE 2.9 7.0----29.99-- 88.9----
2026-08-31 08:42 amNNE 1.9 5.1----29.99-- 88.9----
2026-08-31 08:36 amNNE 5.1 7.0----29.99-- 88.9----
2026-08-31 08:30 am N 6.0 7.0----29.99- 82.9 88.9----
2026-08-31 08:24 am N 4.1 6.0----29.99- 82.8 88.9----
2026-08-31 08:18 amNNE 4.1 6.0----29.99-- 88.9----
2026-08-31 08:12 amNNE 2.9 5.1----29.98-- 88.9----
2026-08-31 08:06 amNNE 2.9 5.1----29.98-- 88.9----
2026-08-31 08:00 amNNE 1.9 5.1----29.98+0.04 82.2 88.9----
2026-08-31 07:54 am NE 1.9 2.9----29.98- 82.6 88.9----
2026-08-31 07:48 amNNE 1.9 4.1----29.97-- 88.9----
2026-08-31 07:42 amNNE 1.9 4.1----29.97-- 88.9----
2026-08-31 07:36 amNNE 1.9 4.1----29.97-- 88.9----
2026-08-31 07:30 amNNE 1.9 5.1----29.97- 81.9 88.9----
2026-08-31 07:24 am N 2.9 4.1----29.96- 81.3 88.9----
2026-08-31 07:18 amNNE 2.9 5.1----29.96-- 88.9----
2026-08-31 07:12 am N 2.9 5.1----29.96-- 88.9----
2026-08-31 07:06 am N 4.1 5.1----29.95-- 89.1----
2026-08-31 07:00 am N 2.9 4.1----29.95+0.01 81.9 89.1----
2026-08-31 06:54 am NW 2.9 4.1----29.95- 81.3 89.1----
2026-08-31 06:48 amNNW 2.9 4.1----29.95-- 89.1----
2026-08-31 06:42 amNNW 1.9 2.9----29.95-- 89.1----
2026-08-31 06:36 am NW 1.9 4.1----29.95-- 89.1----
2026-08-31 06:30 am N 1.9 5.1----29.95- 81.7 89.1----
2026-08-31 06:24 am N 4.1 4.1----29.94- 81.9 89.1----
2026-08-31 06:18 am NW 2.9 4.1----29.94-- 89.1----
2026-08-31 06:12 amNNW 1.9 4.1----29.94-- 89.1----
2026-08-31 06:06 am N 1.9 2.9----29.94-- 89.1----
2026-08-31 06:00 am N 1.9 2.9----29.94+0.00 81.1 89.1----
2026-08-31 05:54 amNNE 1.0 1.9----29.94- 81.1 89.1----
2026-08-31 05:48 am- 0.0 1.0----29.94- 81.5 89.1----
2026-08-31 05:42 am- 0.0 1.9----29.94- 81.3 89.1----
2026-08-31 05:36 am- 0.0 1.0----29.94- 81.0 89.1----
2026-08-31 05:30 am- 0.0 1.0----29.94- 80.8 89.1----
2026-08-31 05:24 am- 0.0 2.9----29.94- 81.0 89.1----
2026-08-31 05:18 amWNW 1.0 1.9----29.94-- 89.1----
2026-08-31 05:12 am- 0.0 1.9----29.94-- 89.1----
2026-08-31 05:06 amESE 1.9 2.9----29.94-- 89.1----
2026-08-31 05:00 amSSE 1.0 1.9----29.94+0.00 82.2 89.1----
2026-08-31 04:54 am S 1.0 1.9----29.94- 82.0 89.1----
2026-08-31 04:48 am S 1.9 4.1----29.94- 81.9 89.1----
2026-08-31 04:42 am S 4.1 7.0----29.94- 81.7 89.1----
2026-08-31 04:36 am S 4.1 8.0----29.94- 81.5 89.1----
2026-08-31 04:30 amSSW 8.9 9.9----29.94- 81.5 89.1----
2026-08-31 04:24 am S 5.1 6.0----29.94- 81.1 89.1----
2026-08-31 04:18 am S 2.9 4.1----29.94-- 89.1----
2026-08-31 04:12 am S 2.9 5.1----29.94-- 89.1----
2026-08-31 04:06 amSSW 5.1 8.0----29.94-- 89.1----
2026-08-31 04:00 amSSW 6.0 7.0----29.94-0.02 82.0 89.1----
2026-08-31 03:54 am S 4.1 4.1----29.94- 81.9 89.1----
2026-08-31 03:48 am S 1.9 4.1----29.93- 81.5 89.1----
2026-08-31 03:42 amSSW 2.9 5.1----29.93- 82.2 89.1----
2026-08-31 03:36 am SE 4.1 8.0----29.94- 82.8 89.1----
2026-08-31 03:30 am SE 5.1 7.0----29.94- 82.9 89.1----
2026-08-31 03:24 am SE 6.0 8.0----29.94- 83.3 89.1----
2026-08-31 03:18 amESE 5.1 8.9----29.94-- 89.2----
2026-08-31 03:12 amESE 5.1 8.0----29.94-- 89.2----
2026-08-31 03:06 amESE 5.1 7.0----29.94-- 89.2----
2026-08-31 03:00 am- 0.0 1.9----29.94-0.02 84.2 89.2----
2026-08-31 02:54 amSSE 1.9 2.9----29.94- 84.4 89.2----
2026-08-31 02:48 amSSE 1.9 2.9----29.94- 84.4 89.2----
2026-08-31 02:42 am S 1.9 2.9----29.94- 84.6 89.2----
2026-08-31 02:36 am S 1.9 2.9----29.94- 84.6 89.2----
2026-08-31 02:30 am S 1.9 2.9----29.94- 84.6 89.2----
2026-08-31 02:24 am S 1.9 4.1----29.95- 84.7 89.2----
2026-08-31 02:18 amSSE 2.9 2.9----29.95- 84.7 89.2----
2026-08-31 02:12 am S 1.9 2.9----29.95- 84.6 89.2----
2026-08-31 02:06 am S 1.9 2.9----29.95- 84.6 89.2----
2026-08-31 02:00 amSSE 1.0 4.1----29.95-0.01 85.1 89.4----
2026-08-31 01:54 amESE 2.9 5.1----29.95- 85.3 89.4----
2026-08-31 01:48 amESE 4.1 5.1----29.95- 85.3 89.4----
2026-08-31 01:42 am SE 1.9 2.9----29.95- 85.1 89.4----
2026-08-31 01:36 am SE 2.9 5.1----29.95- 85.5 89.4----
2026-08-31 01:30 am SE 4.1 5.1----29.96-- 89.4----
2026-08-31 01:24 am SE 2.9 4.1----29.96-- 89.4----
2026-08-31 01:18 am--------- 85.5-----
2026-08-31 01:12 am--------- 85.5-----
2026-08-31 01:06 am--------- 85.5-----
2026-08-31 01:00 amSSE 2.9 5.1----29.96+0.02 85.5 89.4----
2026-08-31 12:54 amSSE 2.9 4.1----29.96- 85.5 89.4----
2026-08-31 12:48 am SE 1.9 4.1----29.96- 85.5 89.4----
2026-08-31 12:42 amESE 1.9 4.1----29.96- 85.5 89.4----
2026-08-31 12:36 amESE 2.9 5.1----29.96- 85.5 89.4----
2026-08-31 12:30 amESE 4.1 6.0----29.96- 86.2 89.4----
2026-08-31 12:24 am SE 6.0 7.0----29.96- 86.4 89.4----
2026-08-31 12:18 am SE 4.1 6.0----29.96-- 89.4----
2026-08-31 12:12 am SE 5.1 6.0----29.96-- 89.4----
2026-08-31 12:06 am SE 4.1 7.0----29.96-- 89.6----
2026-08-31 12:00 am SE 2.9 4.1----29.96+0.04 86.0 89.6----
2026-08-30 11:54 pm SE 2.9 5.1----29.96- 85.5 89.6----
2026-08-30 11:48 pmSSE 1.9 4.1----29.96- 84.7 89.6----
2026-08-30 11:42 pmSSE 2.9 4.1----29.96- 84.6 89.6----
2026-08-30 11:36 pm S 2.9 4.1----29.96- 84.6 89.6----
2026-08-30 11:30 pmSSE 2.9 4.1----29.96- 84.7 89.6----
2026-08-30 11:24 pm S 2.9 4.1----29.96- 84.6 89.6----
2026-08-30 11:18 pmSSE 2.9 5.1----29.96- 84.7 89.6----
2026-08-30 11:12 pmSSE 2.9 4.1----29.96- 84.4 89.6----
2026-08-30 11:06 pmSSE 2.9 4.1----29.96- 84.4 89.6----
2026-08-30 11:00 pmSSE 1.9 2.9----29.96+0.06 84.2 89.6----
2026-08-30 10:54 pmSSE 1.9 4.1----29.96- 84.2 89.6----
2026-08-30 10:48 pmSSE 1.9 4.1----29.96- 83.8 89.8----
2026-08-30 10:42 pmSSE 2.9 4.1----29.96- 84.0 89.8----
2026-08-30 10:36 pmSSE 2.9 4.1----29.96- 83.8 89.8----
2026-08-30 10:30 pmSSE 1.9 2.9----29.95- 83.8 89.8----
2026-08-30 10:24 pmSSE 1.9 4.1----29.95- 83.8 89.8----
2026-08-30 10:18 pmSSE 2.9 5.1----29.95- 84.0 89.8----
2026-08-30 10:12 pmSSE 2.9 5.1----29.95- 84.0 89.8----
2026-08-30 10:06 pmSSE 2.9 4.1----29.95- 84.2 89.8----
2026-08-30 10:00 pmSSE 2.9 4.1----29.94+0.04 84.4 89.8----
2026-08-30 09:54 pm S 1.9 4.1----29.94- 84.7 89.8----
2026-08-30 09:48 pm S 2.9 5.1----29.93- 84.9 89.8----
2026-08-30 09:42 pm S 4.1 7.0----29.93- 86.0 90.0----
2026-08-30 09:36 pmSSW 5.1 7.0----29.93- 86.0 90.0----
2026-08-30 09:30 pmSSW 5.1 6.0----29.93- 85.6 90.0----
2026-08-30 09:24 pmSSW 5.1 6.0----29.93- 85.8 90.0----
2026-08-30 09:18 pm S 5.1 7.0----29.93-- 90.0----
2026-08-30 09:12 pm S 4.1 7.0----29.93-- 90.0----
2026-08-30 09:06 pmSSW 7.0 9.9----29.92-- 90.0----
2026-08-30 09:00 pmSSW 8.0 9.9----29.92+0.01 86.7 90.0----
2026-08-30 08:54 pmSSW 8.0 9.9----29.91- 86.7 90.0----
2026-08-30 08:48 pmSSW 6.0 8.0----29.91- 86.9 90.0----
2026-08-30 08:42 pm SW 7.0 9.9----29.91- 86.9 90.1----
2026-08-30 08:36 pm SW 8.0 9.9----29.91- 86.9 90.1----
2026-08-30 08:30 pm SW 8.0 8.9----29.91- 86.9 90.1----
2026-08-30 08:24 pm SW 7.0 8.9----29.90- 87.1 90.1----
2026-08-30 08:18 pmSSW 7.0 8.9----29.90- 87.1 90.1----
2026-08-30 08:12 pm SW 8.0 9.9----29.90- 87.3 90.1----
2026-08-30 08:06 pmSSW 6.0 8.0----29.90- 87.4 90.1----
2026-08-30 08:00 pm SW 6.0 8.9----29.90-0.01 87.4 90.1----
2026-08-30 07:54 pmSSW 6.0 8.0----29.90- 87.1 90.1----
2026-08-30 07:48 pm S 7.0 8.0----29.90-- 90.1----
2026-08-30 07:42 pm S 6.0 8.0----29.90-- 90.1----
2026-08-30 07:36 pm S 5.1 7.0----29.90-- 90.1----
2026-08-30 07:30 pm S 6.0 7.0----29.91- 87.8 90.1----
2026-08-30 07:24 pm S 4.1 6.0----29.91- 87.8 90.1----
2026-08-30 07:18 pm S 5.1 7.0----29.91-- 90.3----
2026-08-30 07:12 pm S 5.1 6.0----29.91-- 90.3----
2026-08-30 07:06 pm S 5.1 7.0----29.90-- 90.3----
2026-08-30 07:00 pm S 5.1 8.9----29.91-0.01- 90.3----
2026-08-30 06:54 pm S 5.1 9.9----29.91-- 90.3----
2026-08-30 06:48 pmSSW 6.0 8.0----29.91-- 90.3----
2026-08-30 06:42 pm S 5.1 8.9----29.91-- 90.3----
2026-08-30 06:36 pm S 5.1 8.0----29.91-- 90.3----
2026-08-30 06:30 pm S 5.1 8.9----29.91- 90.1 90.3----
2026-08-30 06:24 pm S 5.1 8.9----29.91- 90.5 90.3----
2026-08-30 06:18 pm S 7.0 8.9----29.91-- 90.3----
2026-08-30 06:12 pmSSW 8.0 9.9----29.91-- 90.3----
2026-08-30 06:06 pmSSW 8.9 9.9----29.91-- 90.3----
2026-08-30 06:00 pm S 7.0 9.9----29.91-0.04 90.7 90.3----
2026-08-30 05:54 pm S 7.0 9.9----29.91- 90.9 90.3----
2026-08-30 05:48 pm S 5.1 8.9----29.91- 91.0 90.3----
2026-08-30 05:42 pmSSE 6.0 9.9----29.91- 90.9 90.3----
2026-08-30 05:36 pmSSE 6.0 8.0----29.91- 90.9 90.3----
2026-08-30 05:30 pm SE 5.1 8.0----29.91- 91.2 90.3----
2026-08-30 05:24 pmSSE 6.0 8.9----29.91- 91.0 90.3----
2026-08-30 05:18 pmSSE 8.0 11.1----29.91-- 90.3----
2026-08-30 05:12 pmSSE 8.0 11.1----29.91-- 90.3----
2026-08-30 05:06 pmSSE 7.0 11.1----29.91-- 90.3----
2026-08-30 05:00 pm SE 7.0 9.9----29.91-0.07 91.4 90.3----
2026-08-30 04:54 pmSSE 7.0 11.1----29.91- 91.8 90.3----
2026-08-30 04:48 pm SE 5.1 9.9----29.91- 92.1 90.3----
2026-08-30 04:42 pm SE 6.0 8.9----29.91- 91.9 90.3----
2026-08-30 04:36 pmSSE 6.0 12.0----29.92- 92.3 90.3----
2026-08-30 04:30 pm SE 6.0 13.0----29.91- 92.1 90.3----
2026-08-30 04:24 pmSSE 5.1 9.9----29.92- 92.5 90.3----
2026-08-30 04:18 pm SE 7.0 9.9----29.92-- 90.3----
2026-08-30 04:12 pm SE 5.1 8.0----29.92-- 90.3----
2026-08-30 04:06 pm SE 5.1 9.9----29.92-- 90.3----
2026-08-30 04:00 pmESE 7.0 8.9----29.92-0.07 92.1 90.3----
2026-08-30 03:54 pmSSE 4.1 6.0----29.92- 92.3 90.5----
2026-08-30 03:48 pmSSE 4.1 7.0----29.92- 92.5 90.5----
2026-08-30 03:42 pm SE 5.1 8.0----29.93- 91.9 90.5----
2026-08-30 03:36 pm SE 7.0 8.0----29.93- 91.6 90.5----
2026-08-30 03:30 pm SE 5.1 8.0----29.93- 91.8 90.5----
2026-08-30 03:24 pm SE 5.1 8.0----29.94- 91.9 90.5----
2026-08-30 03:18 pm SE 6.0 8.0----29.94-- 90.5----
2026-08-30 03:12 pm SE 5.1 8.9----29.95-- 90.5----
2026-08-30 03:06 pm SE 5.1 9.9----29.95-- 90.5----
2026-08-30 03:00 pm SE 6.0 8.9----29.95-0.06 91.0 90.5----
2026-08-30 02:54 pm SE 7.0 9.9----29.95- 90.5 90.5----
2026-08-30 02:48 pm SE 6.0 8.9----29.96- 91.0 90.5----
2026-08-30 02:42 pm SE 7.0 8.9----29.96- 90.7 90.5----
2026-08-30 02:36 pmESE 7.0 8.9----29.96- 90.7 90.3----
2026-08-30 02:30 pm SE 5.1 8.9----29.96- 91.0 90.3----
2026-08-30 02:24 pm SE 7.0 11.1----29.96- 91.2 90.3----
2026-08-30 02:18 pm SE 6.0 11.1----29.97-- 90.3----
2026-08-30 02:12 pm SE 6.0 9.9----29.97-- 90.3----
2026-08-30 02:06 pm SE 8.0 9.9----29.97-- 90.0----
2026-08-30 02:00 pm SE 8.0 11.1----29.98-0.04 90.7 90.0----
2026-08-30 01:54 pm SE 6.0 11.1----29.98- 91.0 89.8----
2026-08-30 01:48 pmESE 6.0 11.1----29.98- 90.7 89.8----
2026-08-30 01:42 pmESE 7.0 9.9----29.98- 90.5 89.8----
2026-08-30 01:36 pmESE 6.0 7.0----29.98- 90.7 89.8----
2026-08-30 01:30 pm E 5.1 7.0----29.98- 90.3 89.6----
2026-08-30 01:24 pm E 5.1 7.0----29.99- 89.6 89.6----
2026-08-30 01:18 pm E 6.0 8.9----29.99-- 89.6----
2026-08-30 01:12 pm E 6.0 8.9----29.99-- 89.6----
2026-08-30 01:06 pm E 5.1 7.0----29.99-- 89.6----
2026-08-30 01:00 pm E 5.1 7.0----29.99-0.01 89.8 89.4----
2026-08-30 12:54 pm E 5.1 7.0----29.99- 89.2 89.4----
2026-08-30 12:48 pm E 6.0 7.0----30.00- 89.4 89.4----
2026-08-30 12:42 pmENE 6.0 7.0----30.00- 88.7 89.4----
2026-08-30 12:36 pm E 5.1 8.0----30.00- 89.4 89.4----
2026-08-30 12:30 pm E 5.1 8.0----30.01- 89.4 89.2----
2026-08-30 12:24 pm E 6.0 8.0----30.01- 88.7 89.2----
2026-08-30 12:18 pm E 6.0 8.0----30.01- 88.3 89.2----
2026-08-30 12:12 pm E 6.0 7.0----30.01- 88.5 89.2----
2026-08-30 12:06 pmESE 4.1 6.0----30.01- 89.8 89.2----
2026-08-30 12:00 pmESE 5.1 7.0----30.01+0.01 89.1 89.1----
2026-08-30 11:54 amESE 4.1 8.0----30.01- 89.1 89.1----
2026-08-30 11:48 amESE 6.0 8.0----30.01- 88.2 89.1----
2026-08-30 11:42 amESE 6.0 7.0----30.01- 88.7 89.1----
2026-08-30 11:36 amESE 5.1 8.0----30.01- 88.5 89.1----
2026-08-30 11:30 amESE 6.0 8.0----30.01- 88.2 89.1----
2026-08-30 11:24 amESE 5.1 7.0----30.01- 88.5 89.1----
2026-08-30 11:18 amESE 5.1 7.0----30.01- 88.3 88.9----
2026-08-30 11:12 amESE 5.1 7.0----30.01- 88.7 88.9----
2026-08-30 11:06 amESE 4.1 6.0----30.01- 88.7 88.9----
2026-08-30 11:00 am SE 4.1 5.1----30.01+0.02 88.3 88.9----
2026-08-30 10:54 am- 0.0 1.9----30.01- 89.6 88.9----